Macuco, Brazil
Current Conditions -  °F | °C
As of 12:00 PM on Thursday 23 Oct 2014 (Local Time) from SBSR Reporting Station
Scattered Clouds Scattered Clouds  
Wind Chill: 84°   Ceiling: Unl
Heat Index: 84°   Visibility: 6mi
Dew Point: 61°   Wind: 12mph
Humidity: 45%   Direction: 70°ENE
Pressure: 30.12"   Gusts: NA
Location:  21.72°S, 50.13°W
Report Text: SBSR 231400Z 07010KT 9999 SCT045 SCT070 29/16 Q1020
Loading
Personal Weather Stations






























Interactive Weather Map
Tropical Storm Tracking
New forecast layout! Learn more

10-Day Weather Forecast

Advertisements
Track Severe Weather on mobile